KAKQ/AKQ METAR and TAF weather

Enter ICAO airport designator
Station Type Date Time Source
KAKQ METAR 2022/01/25 03:54 UTC NOAA

KAKQ 250354Z AUTO VRB05KT 10SM CLR 04/M04 A2991 RMK AO2 SLP129 T00441039


Station Type Date Time Source
KAKQ Decoded METAR 2022/01/25 03:54 UTC NOAA

WAKEFIELD MUNICIPAL AIRPOR, VA, United States (KAKQ) 36-59N 077-00W 33M
Jan 24, 2022 - 10:54 PM EST / 2022.01.25 0354 UTC
Wind: Variable at 6 MPH (5 KT):0
Visibility: 10 mile(s):0
Sky conditions: clear
Temperature: 39.9 F (4.4 C)
Dew Point: 25.0 F (-3.9 C)
Relative Humidity: 54%
Pressure (altimeter): 29.91 in. Hg (1012 hPa)
ob: KAKQ 250354Z AUTO VRB05KT 10SM CLR 04/M04 A2991 RMK AO2 SLP129 T00441039
cycle: 4

Station Type Date Time Source
KAKQ TAF UTC NOAA

Error!

Example: see airport list